Time;durP1;ratioP1;P1;durP2;ratioP2;P2;SDS_P1;SDS_P2;PMS_P1;PMS_P2;Temp;Humidity;BMP_temperature;BMP_pressure;BME280_temperature;BME280_humidity;BME280_pressure;Samples;Min_cycle;Max_cycle;Signal;HPM_P1;HPM_P2
2022/03/16 00:01:56;;;;;;;7.38;2.70;;;;;;;;;;5068609;28;20151;-73
2022/03/16 00:04:22;;;;;;;4.85;2.60;;;;;;;;;;5067996;28;20085;-72
2022/03/16 00:06:48;;;;;;;4.78;2.42;;;;;;;;;;5086439;28;20047;-72
2022/03/16 00:09:14;;;;;;;3.53;2.30;;;;;;;;;;5086437;28;20492;-72
2022/03/16 00:11:40;;;;;;;5.45;2.50;;;;;;;;;;5067384;28;20108;-72
2022/03/16 00:14:06;;;;;;;6.90;2.40;;;;;;;;;;5085825;28;20067;-72
2022/03/16 00:16:32;;;;;;;3.78;2.40;;;;;;;;;;5085926;28;20043;-72
2022/03/16 00:18:58;;;;;;;4.53;2.47;;;;;;;;;;5086264;28;20047;-72
2022/03/16 00:21:24;;;;;;;4.50;2.63;;;;;;;;;;5085536;28;20052;-72
2022/03/16 00:23:50;;;;;;;5.28;3.10;;;;;;;;;;5085497;28;20131;-73
2022/03/16 00:26:16;;;;;;;6.35;3.10;;;;;;;;;;5067828;28;20452;-73
2022/03/16 00:28:42;;;;;;;3.90;2.45;;;;;;;;;;5085182;28;20041;-73
2022/03/16 00:31:08;;;;;;;3.50;2.38;;;;;;;;;;5085776;28;20048;-73
2022/03/16 00:33:35;;;;;;;5.28;2.33;;;;;;;;;;5067600;28;20483;-73
2022/03/16 00:36:01;;;;;;;6.95;2.60;;;;;;;;;;5067509;28;20044;-73
2022/03/16 00:38:27;;;;;;;5.07;2.65;;;;;;;;;;5085850;28;20047;-73
2022/03/16 00:40:53;;;;;;;3.17;2.42;;;;;;;;;;5066706;28;20135;-72
2022/03/16 00:43:19;;;;;;;7.78;2.95;;;;;;;;;;5085704;28;20127;-73
2022/03/16 00:45:45;;;;;;;4.00;2.90;;;;;;;;;;5085299;28;20116;-73
2022/03/16 00:48:11;;;;;;;3.28;2.40;;;;;;;;;;5086218;28;20048;-73
2022/03/16 00:50:37;;;;;;;4.22;2.63;;;;;;;;;;5085783;28;20123;-72
2022/03/16 00:53:03;;;;;;;7.63;3.30;;;;;;;;;;5086187;28;20044;-77
2022/03/16 00:55:29;;;;;;;6.95;3.22;;;;;;;;;;5085418;28;20056;-73
2022/03/16 00:57:55;;;;;;;5.88;3.20;;;;;;;;;;5084809;28;20050;-73
2022/03/16 01:00:21;;;;;;;10.57;3.40;;;;;;;;;;5089637;28;20040;-73
2022/03/16 01:02:47;;;;;;;8.23;3.20;;;;;;;;;;5089665;28;20036;-73
2022/03/16 01:05:13;;;;;;;6.65;3.25;;;;;;;;;;5089490;28;20089;-72
2022/03/16 01:07:39;;;;;;;6.20;3.17;;;;;;;;;;5070965;28;20052;-72
2022/03/16 01:10:06;;;;;;;6.05;3.22;;;;;;;;;;5089315;28;20058;-72
2022/03/16 01:12:32;;;;;;;10.13;3.05;;;;;;;;;;5089203;28;20040;-72
2022/03/16 01:14:58;;;;;;;4.60;2.80;;;;;;;;;;5071636;28;20523;-72
2022/03/16 01:17:24;;;;;;;4.75;2.78;;;;;;;;;;5089708;28;20040;-72
2022/03/16 01:19:51;;;;;;;7.93;2.90;;;;;;;;;;5089184;28;20051;-72
2022/03/16 01:22:17;;;;;;;6.30;2.50;;;;;;;;;;5089909;28;20371;-71
2022/03/16 01:24:43;;;;;;;4.47;2.60;;;;;;;;;;5071510;28;20294;-72
2022/03/16 01:27:09;;;;;;;9.50;2.60;;;;;;;;;;5088866;28;20060;-73
2022/03/16 01:29:35;;;;;;;4.68;2.55;;;;;;;;;;5088890;28;20117;-73
2022/03/16 01:32:01;;;;;;;8.43;2.88;;;;;;;;;;5088704;28;20040;-73
2022/03/16 01:34:27;;;;;;;5.35;2.55;;;;;;;;;;5089003;28;20097;-73
2022/03/16 01:36:53;;;;;;;4.57;2.40;;;;;;;;;;5070835;28;20082;-73
2022/03/16 01:39:20;;;;;;;5.82;2.60;;;;;;;;;;5088924;28;20471;-73
2022/03/16 01:41:46;;;;;;;8.75;3.08;;;;;;;;;;5087379;28;20055;-73
2022/03/16 01:44:12;;;;;;;4.45;2.40;;;;;;;;;;5088972;28;20104;-73
2022/03/16 01:46:38;;;;;;;5.07;2.90;;;;;;;;;;5089055;28;20035;-73
2022/03/16 01:49:04;;;;;;;5.07;2.90;;;;;;;;;;5053676;28;20051;-73
2022/03/16 01:51:31;;;;;;;4.43;2.67;;;;;;;;;;5088861;28;20032;-73
2022/03/16 01:53:57;;;;;;;6.18;2.72;;;;;;;;;;5088374;28;20077;-73
2022/03/16 01:56:23;;;;;;;4.63;2.60;;;;;;;;;;5068512;28;20219;-73
2022/03/16 01:58:49;;;;;;;4.28;2.58;;;;;;;;;;5088408;28;20083;-73
2022/03/16 02:01:15;;;;;;;5.47;2.72;;;;;;;;;;5088745;28;20036;-73
2022/03/16 02:03:42;;;;;;;3.92;2.35;;;;;;;;;;5088220;28;20036;-73
2022/03/16 02:06:09;;;;;;;5.30;2.90;;;;;;;;;;5070938;28;20051;-73
2022/03/16 02:08:36;;;;;;;4.35;2.80;;;;;;;;;;5088215;28;20079;-73
2022/03/16 02:11:02;;;;;;;8.10;2.88;;;;;;;;;;5087077;28;20048;-74
2022/03/16 02:13:28;;;;;;;7.05;2.78;;;;;;;;;;5088075;28;20405;-74
2022/03/16 02:15:54;;;;;;;6.32;3.00;;;;;;;;;;5088291;28;20044;-74
2022/03/16 02:18:20;;;;;;;4.30;2.90;;;;;;;;;;5070208;28;20494;-74
2022/03/16 02:20:50;;;;;;;7.43;3.38;;;;;;;;;;5088091;28;20043;-73
2022/03/16 02:23:17;;;;;;;7.88;3.13;;;;;;;;;;5088225;28;20674;-74
2022/03/16 02:25:51;;;;;;;3.83;2.72;;;;;;;;;;5069510;28;20097;-73
2022/03/16 02:28:17;;;;;;;4.53;3.00;;;;;;;;;;5085964;28;20063;-74
2022/03/16 02:30:43;;;;;;;4.45;2.90;;;;;;;;;;5087612;28;20048;-73
2022/03/16 02:33:09;;;;;;;4.18;2.97;;;;;;;;;;5068714;28;20051;-73
2022/03/16 02:35:36;;;;;;;3.75;2.60;;;;;;;;;;5087380;28;20469;-73
2022/03/16 02:38:02;;;;;;;3.67;2.42;;;;;;;;;;5069714;28;20159;-73
2022/03/16 02:40:29;;;;;;;3.95;2.50;;;;;;;;;;5087775;28;20043;-73
2022/03/16 02:42:55;;;;;;;4.93;3.17;;;;;;;;;;5087654;28;20067;-74
2022/03/16 02:45:21;;;;;;;3.63;2.60;;;;;;;;;;5068873;28;20136;-73
2022/03/16 02:47:47;;;;;;;5.05;3.05;;;;;;;;;;5069448;28;20032;-73
2022/03/16 02:50:16;;;;;;;4.35;2.47;;;;;;;;;;5069720;28;20387;-73
2022/03/16 02:52:42;;;;;;;4.77;3.13;;;;;;;;;;5052271;28;20048;-73
2022/03/16 02:55:08;;;;;;;4.03;2.83;;;;;;;;;;5087639;28;20344;-73
2022/03/16 02:57:35;;;;;;;3.67;2.58;;;;;;;;;;5087308;28;20589;-73
2022/03/16 03:00:01;;;;;;;3.55;2.60;;;;;;;;;;5087208;28;20194;-73
2022/03/16 03:02:27;;;;;;;5.28;2.50;;;;;;;;;;5087531;28;20056;-73
2022/03/16 03:04:53;;;;;;;4.72;2.97;;;;;;;;;;5069697;28;20043;-75
2022/03/16 03:07:19;;;;;;;6.95;3.75;;;;;;;;;;5087193;28;20048;-72
2022/03/16 03:09:45;;;;;;;5.47;3.03;;;;;;;;;;5069145;28;20051;-73
2022/03/16 03:12:11;;;;;;;6.80;2.97;;;;;;;;;;5087294;28;20434;-73
2022/03/16 03:14:37;;;;;;;4.78;2.70;;;;;;;;;;5087112;28;20365;-74
2022/03/16 03:17:04;;;;;;;9.00;3.63;;;;;;;;;;5068354;28;20180;-73
2022/03/16 03:19:30;;;;;;;5.20;2.95;;;;;;;;;;5087252;28;20040;-71
2022/03/16 03:21:56;;;;;;;6.88;2.90;;;;;;;;;;5067461;28;20569;-71
2022/03/16 03:24:22;;;;;;;4.85;2.90;;;;;;;;;;5086890;28;20067;-72
2022/03/16 03:26:48;;;;;;;4.53;3.03;;;;;;;;;;5086435;28;20227;-72
2022/03/16 03:29:14;;;;;;;6.05;3.05;;;;;;;;;;5066503;28;20158;-72
2022/03/16 03:31:41;;;;;;;6.90;2.60;;;;;;;;;;5086637;28;20032;-72
2022/03/16 03:34:07;;;;;;;5.25;2.90;;;;;;;;;;5067754;28;20059;-72
2022/03/16 03:36:33;;;;;;;5.40;2.92;;;;;;;;;;5086465;28;20455;-73
2022/03/16 03:39:00;;;;;;;6.25;2.80;;;;;;;;;;5068575;28;20416;-74
2022/03/16 03:41:26;;;;;;;3.88;2.85;;;;;;;;;;5086848;28;20413;-74
2022/03/16 03:43:52;;;;;;;3.70;2.55;;;;;;;;;;5086201;28;20112;-73
2022/03/16 03:46:18;;;;;;;6.20;3.22;;;;;;;;;;5086558;28;20059;-74
2022/03/16 03:48:44;;;;;;;4.40;3.08;;;;;;;;;;5086917;28;20094;-73
2022/03/16 03:51:10;;;;;;;4.75;3.38;;;;;;;;;;5086716;28;20148;-73
2022/03/16 03:53:36;;;;;;;6.90;3.00;;;;;;;;;;5085982;28;20457;-71
2022/03/16 03:56:02;;;;;;;4.45;2.67;;;;;;;;;;5087008;28;20047;-71
2022/03/16 03:58:28;;;;;;;5.10;3.28;;;;;;;;;;5084693;28;20047;-71
2022/03/16 04:00:54;;;;;;;4.00;2.80;;;;;;;;;;5086490;28;20036;-72
2022/03/16 04:03:23;;;;;;;3.83;2.60;;;;;;;;;;5087169;28;20044;-72
2022/03/16 04:05:49;;;;;;;4.20;2.85;;;;;;;;;;5068193;28;20055;-69
2022/03/16 04:08:15;;;;;;;4.88;2.92;;;;;;;;;;5086748;28;20521;-71
2022/03/16 04:10:41;;;;;;;5.43;3.00;;;;;;;;;;5068267;28;20093;-72
2022/03/16 04:13:07;;;;;;;6.13;2.90;;;;;;;;;;5086536;28;20172;-72
2022/03/16 04:15:33;;;;;;;4.80;2.92;;;;;;;;;;5086096;28;20393;-72
2022/03/16 04:17:59;;;;;;;4.90;2.65;;;;;;;;;;5086610;28;20070;-72
2022/03/16 04:20:25;;;;;;;3.70;2.50;;;;;;;;;;5086512;28;20060;-70
2022/03/16 04:22:51;;;;;;;4.05;2.58;;;;;;;;;;5064539;28;20044;-70
2022/03/16 04:25:18;;;;;;;4.13;2.80;;;;;;;;;;5068182;28;20116;-70
2022/03/16 04:27:44;;;;;;;6.00;2.97;;;;;;;;;;5086225;28;20081;-70
2022/03/16 04:30:10;;;;;;;5.13;2.88;;;;;;;;;;5085667;28;20093;-70
2022/03/16 04:32:36;;;;;;;4.13;2.90;;;;;;;;;;5067895;28;20050;-70
2022/03/16 04:35:02;;;;;;;4.40;2.90;;;;;;;;;;5086204;28;20064;-70
2022/03/16 04:37:28;;;;;;;4.97;2.65;;;;;;;;;;5068146;28;20097;-70
2022/03/16 04:39:54;;;;;;;5.03;2.70;;;;;;;;;;5067576;28;20128;-71
2022/03/16 04:42:20;;;;;;;4.50;2.67;;;;;;;;;;5086075;28;20090;-72
2022/03/16 04:44:46;;;;;;;4.03;2.70;;;;;;;;;;5086377;28;20054;-72
2022/03/16 04:47:12;;;;;;;5.25;2.80;;;;;;;;;;5085939;28;20147;-72
2022/03/16 04:49:38;;;;;;;4.07;2.75;;;;;;;;;;5085748;28;20153;-72
2022/03/16 04:52:04;;;;;;;4.28;3.13;;;;;;;;;;5086426;28;20061;-72
2022/03/16 04:54:30;;;;;;;4.63;2.83;;;;;;;;;;5086544;28;20044;-71
2022/03/16 04:56:57;;;;;;;4.53;2.83;;;;;;;;;;5085458;28;20055;-71
2022/03/16 04:59:23;;;;;;;4.45;3.03;;;;;;;;;;5086254;28;20102;-71
2022/03/16 05:01:49;;;;;;;4.68;2.78;;;;;;;;;;5086324;28;20097;-71
2022/03/16 05:04:15;;;;;;;5.88;2.83;;;;;;;;;;5086269;28;20044;-74
2022/03/16 05:06:41;;;;;;;14.20;3.45;;;;;;;;;;5067820;28;20059;-72
2022/03/16 05:09:07;;;;;;;13.75;4.22;;;;;;;;;;5086002;28;20040;-73
2022/03/16 05:11:35;;;;;;;6.03;2.92;;;;;;;;;;5086035;28;20047;-73
2022/03/16 05:14:01;;;;;;;10.13;3.53;;;;;;;;;;5067500;28;20051;-73
2022/03/16 05:16:27;;;;;;;7.50;3.20;;;;;;;;;;5086062;28;20125;-73
2022/03/16 05:18:53;;;;;;;5.63;3.03;;;;;;;;;;5085686;28;20123;-73
2022/03/16 05:21:20;;;;;;;6.38;3.22;;;;;;;;;;5067479;28;20546;-71
2022/03/16 05:23:46;;;;;;;5.00;3.42;;;;;;;;;;5085966;28;20071;-70
2022/03/16 05:26:12;;;;;;;4.47;3.20;;;;;;;;;;5067018;28;20085;-70
2022/03/16 05:28:38;;;;;;;8.07;2.90;;;;;;;;;;5084959;28;20048;-70
2022/03/16 05:31:04;;;;;;;6.78;2.80;;;;;;;;;;5083920;28;20351;-70
2022/03/16 05:33:30;;;;;;;5.75;2.70;;;;;;;;;;5066870;28;20055;-70
2022/03/16 05:35:56;;;;;;;5.95;3.10;;;;;;;;;;5085480;28;20056;-70
2022/03/16 05:38:22;;;;;;;4.32;2.80;;;;;;;;;;5085490;28;20089;-70
2022/03/16 05:40:48;;;;;;;4.28;2.85;;;;;;;;;;5085189;28;20087;-70
2022/03/16 05:43:14;;;;;;;5.22;3.20;;;;;;;;;;5085443;28;20078;-70
2022/03/16 05:45:40;;;;;;;3.30;2.60;;;;;;;;;;5087362;28;20172;-70
2022/03/16 05:48:07;;;;;;;5.38;2.83;;;;;;;;;;5088794;28;20044;-70
2022/03/16 05:50:33;;;;;;;4.05;3.00;;;;;;;;;;5070963;28;20056;-70
2022/03/16 05:53:00;;;;;;;4.28;3.03;;;;;;;;;;5088341;28;20386;-70
2022/03/16 05:55:26;;;;;;;4.13;3.10;;;;;;;;;;5088492;28;20052;-71
2022/03/16 05:57:52;;;;;;;3.67;3.05;;;;;;;;;;5088287;28;21280;-73
2022/03/16 06:00:19;;;;;;;3.83;2.80;;;;;;;;;;5088745;28;20067;-72
2022/03/16 06:02:46;;;;;;;5.63;3.28;;;;;;;;;;5089117;28;20123;-72
2022/03/16 06:05:12;;;;;;;4.13;2.63;;;;;;;;;;5089127;28;20132;-72
2022/03/16 06:07:39;;;;;;;4.93;3.05;;;;;;;;;;5070402;28;20387;-72
2022/03/16 06:10:06;;;;;;;5.90;2.90;;;;;;;;;;5089263;28;20127;-72
2022/03/16 06:12:32;;;;;;;4.00;2.78;;;;;;;;;;5070525;28;20648;-72
2022/03/16 06:14:58;;;;;;;4.05;2.90;;;;;;;;;;5088849;28;20132;-73
2022/03/16 06:17:24;;;;;;;4.90;3.00;;;;;;;;;;5088195;28;21262;-73
2022/03/16 06:19:50;;;;;;;3.85;2.80;;;;;;;;;;5070884;28;20405;-73
2022/03/16 06:22:16;;;;;;;6.93;2.75;;;;;;;;;;5088297;28;20115;-72
2022/03/16 06:24:42;;;;;;;4.93;2.90;;;;;;;;;;5089157;28;20040;-75
2022/03/16 06:27:08;;;;;;;5.32;2.97;;;;;;;;;;5070952;28;20036;-71
2022/03/16 06:29:34;;;;;;;6.32;3.00;;;;;;;;;;5088762;28;20151;-70
2022/03/16 06:32:00;;;;;;;3.75;2.67;;;;;;;;;;5086769;28;20039;-71
2022/03/16 06:34:26;;;;;;;5.40;3.00;;;;;;;;;;5070675;28;20091;-72
2022/03/16 06:36:52;;;;;;;6.55;2.75;;;;;;;;;;5053373;28;20045;-71
2022/03/16 06:39:18;;;;;;;4.40;2.83;;;;;;;;;;5088744;28;20044;-72
2022/03/16 06:41:44;;;;;;;4.28;3.13;;;;;;;;;;5086657;28;20044;-72
2022/03/16 06:44:11;;;;;;;6.30;2.90;;;;;;;;;;5088856;28;20427;-71
2022/03/16 06:46:37;;;;;;;4.03;2.83;;;;;;;;;;5087809;28;20118;-71
2022/03/16 06:49:04;;;;;;;6.43;3.20;;;;;;;;;;5088353;28;20080;-71
2022/03/16 06:51:30;;;;;;;5.25;3.10;;;;;;;;;;5088583;28;20098;-71
2022/03/16 06:53:56;;;;;;;3.65;2.75;;;;;;;;;;5087217;28;20052;-72
2022/03/16 06:56:22;;;;;;;4.47;3.05;;;;;;;;;;5088371;28;20044;-71
2022/03/16 06:58:49;;;;;;;7.47;2.90;;;;;;;;;;5089398;28;20566;-71
2022/03/16 07:01:15;;;;;;;4.90;2.83;;;;;;;;;;5072160;28;20071;-72
2022/03/16 07:03:41;;;;;;;4.13;2.85;;;;;;;;;;5089757;28;20244;-72
2022/03/16 07:06:08;;;;;;;4.30;2.85;;;;;;;;;;5090383;28;20048;-72
2022/03/16 07:08:34;;;;;;;4.78;3.10;;;;;;;;;;5071712;28;20056;-72
2022/03/16 07:11:01;;;;;;;3.25;2.42;;;;;;;;;;5090099;28;20410;-72
2022/03/16 07:13:27;;;;;;;4.05;2.90;;;;;;;;;;5089563;28;20139;-71
2022/03/16 07:15:53;;;;;;;4.38;3.03;;;;;;;;;;5089811;28;20086;-71
2022/03/16 07:18:20;;;;;;;3.88;2.75;;;;;;;;;;5090011;28;20093;-72
2022/03/16 07:20:47;;;;;;;5.78;3.20;;;;;;;;;;5089789;28;20074;-73
2022/03/16 07:23:14;;;;;;;4.50;3.22;;;;;;;;;;5071048;28;20141;-72
2022/03/16 07:25:44;;;;;;;4.18;2.80;;;;;;;;;;5089917;28;20101;-72
2022/03/16 07:28:11;;;;;;;5.82;2.75;;;;;;;;;;5089483;28;20040;-71
2022/03/16 07:30:38;;;;;;;3.70;2.47;;;;;;;;;;5089514;28;20120;-72
2022/03/16 07:33:04;;;;;;;4.88;2.88;;;;;;;;;;5070479;28;20490;-71
2022/03/16 07:35:31;;;;;;;4.60;3.00;;;;;;;;;;5089171;28;20149;-72
2022/03/16 07:37:57;;;;;;;6.22;2.72;;;;;;;;;;5054065;28;20048;-73
2022/03/16 07:40:24;;;;;;;4.68;2.90;;;;;;;;;;5071116;28;20138;-72
2022/03/16 07:42:51;;;;;;;7.88;3.80;;;;;;;;;;5089098;28;20101;-72
2022/03/16 07:45:18;;;;;;;7.22;3.10;;;;;;;;;;5070949;28;20055;-71
2022/03/16 07:47:45;;;;;;;7.20;2.78;;;;;;;;;;5089186;28;20177;-73
2022/03/16 07:50:11;;;;;;;4.75;2.80;;;;;;;;;;5088800;28;20432;-72
2022/03/16 07:52:38;;;;;;;10.05;3.30;;;;;;;;;;5070439;28;20525;-70
2022/03/16 07:55:05;;;;;;;4.88;3.45;;;;;;;;;;5089473;28;20044;-72
2022/03/16 07:57:31;;;;;;;8.77;3.20;;;;;;;;;;5088311;28;20074;-72
2022/03/16 07:59:57;;;;;;;7.10;3.17;;;;;;;;;;5088705;28;20067;-72
2022/03/16 08:02:23;;;;;;;11.35;3.40;;;;;;;;;;5088868;28;20044;-72
2022/03/16 08:04:49;;;;;;;7.13;2.83;;;;;;;;;;5086911;28;20129;-73
2022/03/16 08:07:15;;;;;;;4.72;3.13;;;;;;;;;;5088299;28;20357;-73
2022/03/16 08:09:41;;;;;;;6.40;2.70;;;;;;;;;;5088475;28;20387;-73
2022/03/16 08:12:08;;;;;;;5.65;2.85;;;;;;;;;;5054746;28;20056;-73
2022/03/16 08:14:34;;;;;;;5.22;3.00;;;;;;;;;;5067152;28;20084;-73
2022/03/16 08:17:00;;;;;;;7.75;3.20;;;;;;;;;;5067836;28;20060;-73
2022/03/16 08:19:26;;;;;;;4.50;2.90;;;;;;;;;;5067751;28;20048;-72
2022/03/16 08:21:52;;;;;;;6.55;3.40;;;;;;;;;;5067625;28;20416;-72
2022/03/16 08:24:18;;;;;;;3.83;2.75;;;;;;;;;;5067979;28;20159;-72
2022/03/16 08:26:44;;;;;;;5.35;2.83;;;;;;;;;;5067208;28;20041;-72
2022/03/16 08:29:10;;;;;;;5.88;3.00;;;;;;;;;;5067841;28;20540;-73
2022/03/16 08:31:37;;;;;;;6.15;3.08;;;;;;;;;;5067183;28;20048;-73
2022/03/16 08:34:03;;;;;;;7.45;2.85;;;;;;;;;;5067501;28;20061;-73
2022/03/16 08:36:29;;;;;;;6.47;3.05;;;;;;;;;;5050316;28;20094;-73
2022/03/16 08:38:55;;;;;;;6.82;3.10;;;;;;;;;;5067594;28;20501;-72
2022/03/16 08:41:21;;;;;;;8.43;3.03;;;;;;;;;;5067402;28;20043;-72
2022/03/16 08:43:47;;;;;;;7.63;3.05;;;;;;;;;;5049700;28;20036;-72
2022/03/16 08:46:13;;;;;;;5.75;2.97;;;;;;;;;;5067798;28;20721;-72
2022/03/16 08:48:40;;;;;;;6.32;3.47;;;;;;;;;;5049658;28;20189;-71
2022/03/16 08:51:08;;;;;;;6.53;2.72;;;;;;;;;;5067182;28;20149;-72
2022/03/16 08:53:34;;;;;;;10.27;3.00;;;;;;;;;;5067326;28;20064;-71
2022/03/16 08:56:01;;;;;;;4.78;2.90;;;;;;;;;;5067383;28;20040;-73
2022/03/16 08:58:27;;;;;;;5.20;2.90;;;;;;;;;;5049670;28;20049;-73
2022/03/16 09:00:53;;;;;;;4.78;3.00;;;;;;;;;;5067227;28;20052;-70
2022/03/16 09:03:20;;;;;;;6.18;2.75;;;;;;;;;;5067611;28;20392;-73
2022/03/16 09:05:46;;;;;;;5.68;3.00;;;;;;;;;;5067463;28;20107;-74
2022/03/16 09:08:12;;;;;;;5.68;3.03;;;;;;;;;;5067766;28;20049;-74
2022/03/16 09:10:38;;;;;;;5.00;2.85;;;;;;;;;;5066727;28;20045;-73
2022/03/16 09:13:05;;;;;;;17.40;4.20;;;;;;;;;;5049919;28;20105;-75
2022/03/16 09:15:31;;;;;;;11.68;4.10;;;;;;;;;;5049582;28;20130;-74
2022/03/16 09:17:57;;;;;;;8.00;3.22;;;;;;;;;;5049968;28;20444;-73
2022/03/16 09:20:24;;;;;;;6.90;3.13;;;;;;;;;;5069384;28;20396;-72
2022/03/16 09:22:50;;;;;;;9.02;3.55;;;;;;;;;;5070880;28;20044;-71
2022/03/16 09:25:16;;;;;;;5.95;3.10;;;;;;;;;;5071398;28;20487;-75
2022/03/16 09:27:42;;;;;;;7.05;3.55;;;;;;;;;;5075089;28;20072;-71
2022/03/16 09:30:08;;;;;;;5.35;3.47;;;;;;;;;;5091625;28;20056;-73
2022/03/16 09:32:35;;;;;;;5.28;3.60;;;;;;;;;;5056391;28;20040;-73
2022/03/16 09:35:01;;;;;;;6.57;3.47;;;;;;;;;;5088871;28;20482;-74
2022/03/16 09:37:27;;;;;;;10.55;4.20;;;;;;;;;;5073071;28;20083;-75
2022/03/16 09:39:53;;;;;;;9.07;4.80;;;;;;;;;;5090283;28;20036;-77
2022/03/16 09:42:22;;;;;;;6.50;4.28;;;;;;;;;;5090303;28;20135;-75
2022/03/16 09:44:51;;;;;;;8.50;5.03;;;;;;;;;;5073365;28;20080;-73
2022/03/16 09:47:18;;;;;;;8.50;4.72;;;;;;;;;;5091752;28;20040;-75
2022/03/16 09:49:44;;;;;;;9.85;5.50;;;;;;;;;;5091291;28;20094;-73
2022/03/16 09:52:11;;;;;;;8.70;5.20;;;;;;;;;;5091232;28;20043;-71
2022/03/16 09:54:37;;;;;;;9.50;5.85;;;;;;;;;;5090038;28;20040;-73
2022/03/16 09:57:03;;;;;;;13.02;5.60;;;;;;;;;;5090101;28;20044;-74
2022/03/16 09:59:29;;;;;;;11.75;5.45;;;;;;;;;;5077468;28;20364;-70
2022/03/16 10:02:09;;;;;;;10.23;5.35;;;;;;;;;;5090347;28;20047;-73
2022/03/16 10:04:36;;;;;;;11.77;5.65;;;;;;;;;;5091505;28;20387;-73
2022/03/16 10:07:04;;;;;;;11.15;5.82;;;;;;;;;;5088723;28;20418;-76
2022/03/16 10:15:07;;;;;;;15.90;6.43;;;;;;;;;;5089580;28;20044;-73
2022/03/16 10:17:43;;;;;;;12.55;6.45;;;;;;;;;;5088377;28;20047;-73
2022/03/16 10:20:09;;;;;;;15.15;6.43;;;;;;;;;;5088482;28;20043;-72
2022/03/16 10:22:38;;;;;;;15.90;7.85;;;;;;;;;;5089395;28;20051;-73
2022/03/16 10:25:07;;;;;;;12.03;7.27;;;;;;;;;;5087632;28;20378;-72
2022/03/16 10:27:36;;;;;;;13.43;6.68;;;;;;;;;;5071008;28;20048;-74
2022/03/16 10:30:05;;;;;;;13.77;7.78;;;;;;;;;;5088716;28;20048;-75
2022/03/16 10:32:32;;;;;;;19.75;7.50;;;;;;;;;;5086726;28;20097;-71
2022/03/16 10:35:05;;;;;;;12.95;8.20;;;;;;;;;;5069676;28;20131;-69
2022/03/16 10:37:31;;;;;;;13.82;7.97;;;;;;;;;;5085986;28;20040;-71
2022/03/16 10:39:58;;;;;;;13.93;7.65;;;;;;;;;;5088296;28;20047;-71
2022/03/16 10:48:02;;;;;;;14.23;7.82;;;;;;;;;;5087032;28;20063;-71
2022/03/16 10:50:28;;;;;;;13.27;7.63;;;;;;;;;;5088658;28;20185;-71
2022/03/16 10:52:54;;;;;;;13.05;7.88;;;;;;;;;;5070453;28;20458;-71
2022/03/16 10:55:21;;;;;;;12.45;7.47;;;;;;;;;;5088689;28;20044;-71
2022/03/16 10:57:49;;;;;;;12.60;7.80;;;;;;;;;;5087381;28;20048;-71
2022/03/16 11:00:16;;;;;;;12.07;7.97;;;;;;;;;;5088049;28;20096;-71
2022/03/16 11:02:43;;;;;;;13.50;8.38;;;;;;;;;;5070098;28;20380;-71
2022/03/16 11:05:09;;;;;;;13.65;7.90;;;;;;;;;;5088797;28;20175;-71
2022/03/16 11:07:37;;;;;;;15.55;8.10;;;;;;;;;;5087485;28;20036;-71
2022/03/16 11:10:04;;;;;;;12.80;7.75;;;;;;;;;;5069735;28;20048;-71
2022/03/16 11:15:18;;;;;;;14.27;8.35;;;;;;;;;;5069617;28;20535;-71
2022/03/16 11:17:45;;;;;;;12.70;7.93;;;;;;;;;;5088248;28;20052;-71
2022/03/16 11:20:11;;;;;;;12.80;7.90;;;;;;;;;;5087426;28;20096;-71
2022/03/16 11:22:37;;;;;;;10.57;7.60;;;;;;;;;;5087476;28;20371;-71
2022/03/16 11:25:07;;;;;;;13.15;8.02;;;;;;;;;;5088005;28;20040;-71
2022/03/16 11:27:45;;;;;;;13.23;7.80;;;;;;;;;;5069188;28;20039;-71
2022/03/16 11:30:15;;;;;;;13.02;8.05;;;;;;;;;;5088174;28;20453;-71
2022/03/16 11:32:42;;;;;;;13.50;7.82;;;;;;;;;;5085715;28;20044;-72
2022/03/16 11:35:09;;;;;;;12.40;7.82;;;;;;;;;;5087238;28;20065;-71
2022/03/16 11:37:38;;;;;;;12.10;7.63;;;;;;;;;;5087309;28;20047;-71
2022/03/16 11:40:09;;;;;;;14.85;7.93;;;;;;;;;;5085640;28;20501;-71
2022/03/16 11:42:36;;;;;;;11.70;7.53;;;;;;;;;;5087016;28;20047;-71
2022/03/16 11:45:27;;;;;;;10.63;7.13;;;;;;;;;;5087491;28;20075;-71
2022/03/16 11:47:53;;;;;;;10.50;7.22;;;;;;;;;;5086826;28;20043;-71
2022/03/16 11:50:20;;;;;;;11.32;8.07;;;;;;;;;;5087580;28;20048;-71
2022/03/16 11:53:17;;;;;;;11.88;7.85;;;;;;;;;;5086849;28;20053;-71
2022/03/16 11:55:47;;;;;;;10.23;7.68;;;;;;;;;;5052827;28;20190;-71
2022/03/16 11:58:28;;;;;;;12.52;7.53;;;;;;;;;;5085582;28;20044;-71
2022/03/16 12:01:13;;;;;;;10.25;7.68;;;;;;;;;;5086905;28;20483;-71
2022/03/16 12:03:43;;;;;;;11.32;7.50;;;;;;;;;;5085461;28;20076;-71
2022/03/16 12:06:09;;;;;;;11.45;7.85;;;;;;;;;;5087542;28;20781;-72
2022/03/16 12:08:51;;;;;;;10.55;7.60;;;;;;;;;;5086596;28;20043;-71
2022/03/16 12:14:05;;;;;;;11.75;7.60;;;;;;;;;;5086591;28;20101;-72
2022/03/16 12:16:40;;;;;;;11.63;8.02;;;;;;;;;;5086584;28;20052;-71
2022/03/16 12:19:27;;;;;;;11.98;7.22;;;;;;;;;;5085156;28;20040;-71
2022/03/16 12:21:54;;;;;;;9.20;7.20;;;;;;;;;;5086923;28;20043;-72
2022/03/16 12:30:03;;;;;;;11.43;7.70;;;;;;;;;;5086227;28;20056;-71
2022/03/16 12:32:34;;;;;;;10.48;7.57;;;;;;;;;;5086465;28;20402;-72
2022/03/16 12:35:01;;;;;;;12.10;7.75;;;;;;;;;;5086642;28;20048;-71
2022/03/16 12:37:28;;;;;;;11.20;7.63;;;;;;;;;;5068565;28;20110;-71
2022/03/16 12:39:55;;;;;;;10.38;7.55;;;;;;;;;;5085809;28;20111;-71
2022/03/16 12:42:33;;;;;;;9.57;7.43;;;;;;;;;;5086877;28;20044;-72
2022/03/16 12:45:09;;;;;;;9.88;7.57;;;;;;;;;;5084199;28;20077;-72
2022/03/16 12:47:40;;;;;;;9.82;7.25;;;;;;;;;;5084997;28;20044;-74
2022/03/16 12:50:11;;;;;;;11.38;7.57;;;;;;;;;;5051755;28;20127;-69
2022/03/16 12:52:39;;;;;;;11.65;8.48;;;;;;;;;;5086937;28;20044;-69
2022/03/16 12:55:18;;;;;;;10.50;8.07;;;;;;;;;;5087997;28;20047;-70
2022/03/16 12:57:51;;;;;;;11.52;8.35;;;;;;;;;;5091044;28;20052;-71
2022/03/16 13:00:17;;;;;;;11.35;7.60;;;;;;;;;;5090648;28;20458;-71
2022/03/16 13:02:44;;;;;;;9.70;7.18;;;;;;;;;;5090078;28;20058;-71
2022/03/16 13:05:11;;;;;;;11.70;7.97;;;;;;;;;;5090790;28;20044;-70
2022/03/16 13:07:38;;;;;;;11.68;7.05;;;;;;;;;;5090574;28;20040;-71
2022/03/16 13:10:06;;;;;;;8.43;6.18;;;;;;;;;;5090035;28;20052;-70
2022/03/16 13:12:32;;;;;;;10.48;7.78;;;;;;;;;;5090355;28;20366;-71
2022/03/16 13:14:58;;;;;;;8.52;6.60;;;;;;;;;;5089323;28;20048;-71
2022/03/16 13:17:24;;;;;;;12.25;7.72;;;;;;;;;;5089976;28;20067;-73
2022/03/16 13:19:54;;;;;;;11.63;8.05;;;;;;;;;;5089909;28;20172;-71
2022/03/16 13:22:25;;;;;;;10.63;7.35;;;;;;;;;;5085410;28;20044;-70
2022/03/16 13:24:52;;;;;;;13.55;7.43;;;;;;;;;;5071747;28;20117;-70
2022/03/16 13:27:19;;;;;;;11.07;7.15;;;;;;;;;;5089129;28;20071;-72
2022/03/16 13:29:49;;;;;;;10.70;7.47;;;;;;;;;;5089148;28;20105;-71
2022/03/16 13:32:16;;;;;;;9.98;7.53;;;;;;;;;;5089105;28;20044;-70
2022/03/16 13:34:43;;;;;;;10.10;7.63;;;;;;;;;;5089685;28;20047;-72
2022/03/16 13:37:20;;;;;;;10.43;7.32;;;;;;;;;;5090285;28;20564;-72
2022/03/16 13:40:03;;;;;;;10.85;8.00;;;;;;;;;;5089465;28;20079;-70
2022/03/16 13:42:30;;;;;;;10.07;7.40;;;;;;;;;;5087702;28;20040;-71
2022/03/16 13:45:10;;;;;;;10.60;7.53;;;;;;;;;;5089816;28;20040;-72
2022/03/16 13:47:36;;;;;;;12.13;7.68;;;;;;;;;;5071458;28;20044;-73
2022/03/16 13:50:03;;;;;;;11.18;7.13;;;;;;;;;;5089523;28;20040;-71
2022/03/16 13:52:34;;;;;;;11.55;7.32;;;;;;;;;;5088736;28;20044;-69
2022/03/16 13:55:14;;;;;;;10.65;7.18;;;;;;;;;;5077655;28;20105;-69
2022/03/16 13:57:42;;;;;;;17.10;6.78;;;;;;;;;;5090924;28;20487;-68
2022/03/16 14:00:10;;;;;;;11.80;7.25;;;;;;;;;;5090695;28;20044;-68
2022/03/16 14:02:36;;;;;;;10.38;7.45;;;;;;;;;;5072740;28;20510;-68
2022/03/16 14:05:06;;;;;;;10.80;7.07;;;;;;;;;;5089945;28;20036;-69
2022/03/16 14:07:34;;;;;;;10.27;7.18;;;;;;;;;;5091028;28;20127;-68
2022/03/16 14:10:05;;;;;;;8.48;6.55;;;;;;;;;;5090873;28;20040;-68
2022/03/16 14:12:35;;;;;;;13.07;8.07;;;;;;;;;;5090388;28;20111;-68
2022/03/16 14:15:06;;;;;;;9.32;6.90;;;;;;;;;;5091039;28;20135;-69
2022/03/16 14:17:42;;;;;;;9.30;7.20;;;;;;;;;;5090717;28;20048;-69
2022/03/16 14:20:10;;;;;;;9.43;7.07;;;;;;;;;;5091008;28;20036;-69
2022/03/16 14:22:36;;;;;;;8.77;6.47;;;;;;;;;;5090367;28;20405;-68
2022/03/16 14:25:11;;;;;;;9.25;6.93;;;;;;;;;;5090382;28;20055;-68
2022/03/16 14:27:38;;;;;;;8.65;6.65;;;;;;;;;;5090180;28;20083;-68
2022/03/16 14:30:04;;;;;;;10.18;6.45;;;;;;;;;;5090556;28;20043;-68
2022/03/16 14:32:30;;;;;;;10.57;6.88;;;;;;;;;;5090763;28;20050;-68
2022/03/16 14:34:56;;;;;;;11.00;6.35;;;;;;;;;;5072004;28;20052;-68
2022/03/16 14:37:22;;;;;;;10.68;6.45;;;;;;;;;;5090193;28;20427;-69
2022/03/16 14:39:49;;;;;;;9.80;6.95;;;;;;;;;;5090079;28;20336;-70
2022/03/16 14:42:17;;;;;;;10.82;7.28;;;;;;;;;;5071846;28;20565;-71
2022/03/16 14:44:43;;;;;;;9.25;5.90;;;;;;;;;;5071784;28;20052;-71
2022/03/16 14:47:09;;;;;;;9.38;6.65;;;;;;;;;;5090135;28;20044;-71
2022/03/16 14:49:35;;;;;;;10.00;6.75;;;;;;;;;;5071572;28;20040;-71
2022/03/16 14:52:03;;;;;;;8.48;6.28;;;;;;;;;;5089772;28;20460;-72
2022/03/16 14:54:29;;;;;;;10.00;6.38;;;;;;;;;;5089671;28;20470;-72
2022/03/16 14:56:55;;;;;;;11.15;7.13;;;;;;;;;;5089981;28;20055;-70
2022/03/16 14:59:21;;;;;;;7.97;6.32;;;;;;;;;;5090131;28;20090;-71
2022/03/16 15:01:47;;;;;;;9.90;5.82;;;;;;;;;;5089723;28;20482;-70